Takamine — 7JKK — position and weather

sailwx.info

Track history (hours):
 
Tides and Currents Weather Stations Pressure Air Temp Water Temp Dewpoint Dewpoint Depression Visibility Wind Speed Wind Dir Waves Ship Positions

Takamine

Last reported at 2014-Dec-17 09:18 UTC. Time now 2014-Dec-21 08:33 UTC.
Position N 01°56' E 102°16'.

Length 333 m; draft 10.1 m.

Type: Tanker. MMSI: 432832000.

Date/timePositionNaut miles runAvg speedWind from/ knotsBaromVisibWave heightAir tempDewpointWater temp
2014-Dec-17 09:18N 01°56' E 102°16'1115.3
2014-Dec-17 08:33N 01°51' E 102°26'1615.8
2014-Dec-17 07:33N 01°44' E 102°40'6715.8
2014-Dec-17 03:18N 01°11' E 103°39'810.7
2014-Dec-17 02:33N 01°10' E 103°47'9 9.5
2014-Dec-17 01:33N 01°14' E 103°55'1211.3
2014-Dec-17 00:31N 01°16' E 104°06'1512.3
2014-Dec-16 23:19N 01°19' E 104°21'  
2014-Dec-12 11:33N 24°31' E 119°01'1414.4
2014-Dec-12 10:33N 24°45' E 119°03'1110.8
2014-Dec-12 09:33N 24°56' E 119°03'8 7.5
2014-Dec-12 08:33N 25°03' E 119°01'0 0.0
2014-Dec-11 22:30N 25°03' E 119°01'0 0.0
2014-Dec-11 21:33N 25°03' E 119°01'0 0.0
2014-Dec-11 20:33N 25°03' E 119°01'0 0.0
2014-Dec-11 19:33N 25°03' E 119°01'0 0.0
2014-Dec-11 18:33N 25°03' E 119°01'0 0.0
2014-Dec-11 17:33N 25°03' E 119°01'0 0.0
2014-Dec-11 16:33N 25°03' E 119°01'0 0.0
2014-Dec-11 15:33N 25°03' E 119°01'0 0.0
2014-Dec-11 14:24N 25°03' E 119°01'0 0.0
2014-Dec-10 22:30N 25°03' E 119°01'0 0.0
2014-Dec-10 21:30N 25°03' E 119°01'0 0.0
2014-Dec-10 20:24N 25°03' E 119°01'0 0.0
2014-Dec-10 19:30N 25°03' E 119°01'0 0.0
2014-Dec-10 18:30N 25°03' E 119°01'0 0.0
2014-Dec-10 17:30N 25°03' E 119°01'0 0.0
2014-Dec-10 16:30N 25°03' E 119°01'0 0.0
2014-Dec-10 15:12N 25°03' E 119°01'0 0.0
2014-Dec-10 14:30N 25°03' E 119°01'0 0.0
2014-Dec-10 06:33N 25°03' E 119°01'3 2.9
2014-Dec-10 05:33N 25°01' E 119°03'8 7.6
2014-Dec-10 04:33N 24°54' E 119°02'3 3.4
2014-Dec-10 03:33N 24°50' E 119°02'4 4.4
2014-Dec-10 02:33N 24°46' E 119°00'3 2.6
2014-Dec-10 01:33N 24°44' E 118°58'0 0.1
2014-Dec-10 00:33N 24°44' E 118°58'0 0.1
2014-Dec-09 23:33N 24°44' E 118°58'0 0.1
2014-Dec-09 22:33N 24°44' E 118°58'0 0.1
2014-Dec-09 21:33N 24°44' E 118°58'0 0.1
2014-Dec-09 20:33N 24°44' E 118°58'0 0.0
2014-Dec-09 19:33N 24°44' E 118°58'0 0.1
2014-Dec-09 18:33N 24°44' E 118°58'0 0.0
2014-Dec-09 17:33N 24°44' E 118°58'0 0.0
2014-Dec-09 16:33N 24°44' E 118°58'0 0.0
2014-Dec-09 15:33N 24°44' E 118°58'0 0.1
2014-Dec-09 14:33N 24°44' E 118°58'0 0.1
2014-Dec-09 13:33N 24°44' E 118°58'0 0.0
2014-Dec-09 12:33N 24°44' E 118°58'0 0.0
2014-Dec-09 11:33N 24°44' E 118°58'0 0.0
2014-Dec-09 10:33N 24°44' E 118°58'0 0.0
2014-Dec-09 09:33N 24°44' E 118°58'0 0.2
2014-Dec-09 08:34N 24°44' E 118°58'4 4.0
2014-Dec-09 07:33N 24°40' E 118°57'2 1.6
2014-Dec-09 06:34N 24°38' E 118°57'3 3.4
2014-Dec-09 05:34N 24°40' E 119°00'3 3.3
2014-Dec-09 04:33N 24°42' E 119°04'2 2.0
2014-Dec-09 03:23N 24°43' E 119°01'2 2.6
2014-Dec-09 02:33N 24°44' E 118°59'1 1.2
2014-Dec-09 01:34N 24°45' E 118°58'5 4.6
2014-Dec-09 00:34N 24°40' E 118°57'1 1.4
2014-Dec-08 23:33N 24°40' E 118°58'1 1.3
2014-Dec-08 22:34N 24°40' E 118°60'2 1.5
2014-Dec-08 21:33N 24°40' E 119°01'2 2.0
2014-Dec-08 20:34N 24°41' E 119°03'1 0.8
2014-Dec-08 19:33N 24°42' E 119°03'3 3.4
2014-Dec-08 18:32N 24°40' E 119°00'2 2.1
2014-Dec-08 17:29N 24°38' E 119°01'1 0.4
2014-Dec-08 15:33N 24°37' E 119°00'6 6.5
2014-Dec-08 14:33N 24°43' E 119°01'1 1.5
2014-Dec-08 13:34N 24°44' E 118°59'1 0.9
2014-Dec-08 12:34N 24°45' E 118°58'1 1.0
2014-Dec-08 11:33N 24°44' E 118°60'1 0.8
2014-Dec-08 10:34N 24°44' E 118°60'0 0.4
2014-Dec-08 09:34N 24°43' E 118°59'1 1.1
2014-Dec-08 08:34N 24°42' E 118°59'1 0.9
2014-Dec-08 07:33N 24°43' E 118°60'1 0.6
2014-Dec-08 06:34N 24°43' E 118°60'0 0.2
2014-Dec-08 05:24N 24°43' E 119°00'1 0.8
2014-Dec-08 04:32N 24°43' E 118°59'1 1.3
2014-Dec-08 03:33N 24°42' E 119°00'3 3.2
2014-Dec-08 02:34N 24°45' E 119°02'2 2.0
2014-Dec-08 01:33N 24°47' E 119°01'4 4.2
2014-Dec-08 00:33N 24°43' E 118°59'0 0.2
2014-Dec-07 23:29N 24°43' E 118°60'0 0.1
2014-Dec-07 22:29N 24°43' E 118°60'0 0.1
2014-Dec-07 21:29N 24°43' E 118°59'0 0.1
2014-Dec-07 20:29N 24°43' E 118°59'0 0.0
2014-Dec-07 19:23N 24°43' E 118°59'0 0.1
2014-Dec-07 18:23N 24°43' E 118°59'0 0.1
2014-Dec-07 17:29N 24°43' E 118°59'0 0.0
2014-Dec-07 16:11N 24°43' E 118°59'0 0.1
2014-Dec-07 15:29N 24°43' E 118°59'0 0.0
2014-Dec-07 14:29N 24°43' E 118°59'0 0.2
2014-Dec-07 13:17N 24°43' E 118°59'0 0.2
2014-Dec-07 12:29N 24°43' E 118°60'0 0.3
2014-Dec-07 11:33N 24°43' E 118°60'2 1.9
2014-Dec-07 10:33N 24°43' E 119°02'5 5.5
2014-Dec-07 09:33N 24°43' E 119°08'  
Track history (hours):
 
Tides and Currents Weather Stations Pressure Air Temp Water Temp Dewpoint Dewpoint Depression Visibility Wind Speed Wind Dir Waves Ship Positions

Takamine

Last reported at 2014-Dec-17 09:18 UTC. Time now 2014-Dec-21 08:33 UTC.
Position N 01°56' E 102°16'.

Length 333 m; draft 10.1 m.

Type: Tanker. MMSI: 432832000.

Date/timePositionNaut miles runAvg speedWind from/ knotsBaromVisibWave heightAir tempDewpointWater temp
2014-Dec-17 09:18N 01°56' E 102°16'1115.3
2014-Dec-17 08:33N 01°51' E 102°26'1615.8
2014-Dec-17 07:33N 01°44' E 102°40'6715.8
2014-Dec-17 03:18N 01°11' E 103°39'810.7
2014-Dec-17 02:33N 01°10' E 103°47'9 9.5
2014-Dec-17 01:33N 01°14' E 103°55'1211.3
2014-Dec-17 00:31N 01°16' E 104°06'1512.3
2014-Dec-16 23:19N 01°19' E 104°21'  
2014-Dec-12 11:33N 24°31' E 119°01'1414.4
2014-Dec-12 10:33N 24°45' E 119°03'1110.8
2014-Dec-12 09:33N 24°56' E 119°03'8 7.5
2014-Dec-12 08:33N 25°03' E 119°01'0 0.0
2014-Dec-11 22:30N 25°03' E 119°01'0 0.0
2014-Dec-11 21:33N 25°03' E 119°01'0 0.0
2014-Dec-11 20:33N 25°03' E 119°01'0 0.0
2014-Dec-11 19:33N 25°03' E 119°01'0 0.0
2014-Dec-11 18:33N 25°03' E 119°01'0 0.0
2014-Dec-11 17:33N 25°03' E 119°01'0 0.0
2014-Dec-11 16:33N 25°03' E 119°01'0 0.0
2014-Dec-11 15:33N 25°03' E 119°01'0 0.0
2014-Dec-11 14:24N 25°03' E 119°01'0 0.0
2014-Dec-10 22:30N 25°03' E 119°01'0 0.0
2014-Dec-10 21:30N 25°03' E 119°01'0 0.0
2014-Dec-10 20:24N 25°03' E 119°01'0 0.0
2014-Dec-10 19:30N 25°03' E 119°01'0 0.0
2014-Dec-10 18:30N 25°03' E 119°01'0 0.0
2014-Dec-10 17:30N 25°03' E 119°01'0 0.0
2014-Dec-10 16:30N 25°03' E 119°01'0 0.0
2014-Dec-10 15:12N 25°03' E 119°01'0 0.0
2014-Dec-10 14:30N 25°03' E 119°01'0 0.0
2014-Dec-10 06:33N 25°03' E 119°01'3 2.9
2014-Dec-10 05:33N 25°01' E 119°03'8 7.6
2014-Dec-10 04:33N 24°54' E 119°02'3 3.4
2014-Dec-10 03:33N 24°50' E 119°02'4 4.4
2014-Dec-10 02:33N 24°46' E 119°00'3 2.6
2014-Dec-10 01:33N 24°44' E 118°58'0 0.1
2014-Dec-10 00:33N 24°44' E 118°58'0 0.1
2014-Dec-09 23:33N 24°44' E 118°58'0 0.1
2014-Dec-09 22:33N 24°44' E 118°58'0 0.1
2014-Dec-09 21:33N 24°44' E 118°58'0 0.1
2014-Dec-09 20:33N 24°44' E 118°58'0 0.0
2014-Dec-09 19:33N 24°44' E 118°58'0 0.1
2014-Dec-09 18:33N 24°44' E 118°58'0 0.0
2014-Dec-09 17:33N 24°44' E 118°58'0 0.0
2014-Dec-09 16:33N 24°44' E 118°58'0 0.0
2014-Dec-09 15:33N 24°44' E 118°58'0 0.1
2014-Dec-09 14:33N 24°44' E 118°58'0 0.1
2014-Dec-09 13:33N 24°44' E 118°58'0 0.0
2014-Dec-09 12:33N 24°44' E 118°58'0 0.0
2014-Dec-09 11:33N 24°44' E 118°58'0 0.0
2014-Dec-09 10:33N 24°44' E 118°58'0 0.0
2014-Dec-09 09:33N 24°44' E 118°58'0 0.2
2014-Dec-09 08:34N 24°44' E 118°58'4 4.0
2014-Dec-09 07:33N 24°40' E 118°57'2 1.6
2014-Dec-09 06:34N 24°38' E 118°57'3 3.4
2014-Dec-09 05:34N 24°40' E 119°00'3 3.3
2014-Dec-09 04:33N 24°42' E 119°04'2 2.0
2014-Dec-09 03:23N 24°43' E 119°01'2 2.6
2014-Dec-09 02:33N 24°44' E 118°59'1 1.2
2014-Dec-09 01:34N 24°45' E 118°58'5 4.6
2014-Dec-09 00:34N 24°40' E 118°57'1 1.4
2014-Dec-08 23:33N 24°40' E 118°58'1 1.3
2014-Dec-08 22:34N 24°40' E 118°60'2 1.5
2014-Dec-08 21:33N 24°40' E 119°01'2 2.0
2014-Dec-08 20:34N 24°41' E 119°03'1 0.8
2014-Dec-08 19:33N 24°42' E 119°03'3 3.4
2014-Dec-08 18:32N 24°40' E 119°00'2 2.1
2014-Dec-08 17:29N 24°38' E 119°01'1 0.4
2014-Dec-08 15:33N 24°37' E 119°00'6 6.5
2014-Dec-08 14:33N 24°43' E 119°01'1 1.5
2014-Dec-08 13:34N 24°44' E 118°59'1 0.9
2014-Dec-08 12:34N 24°45' E 118°58'1 1.0
2014-Dec-08 11:33N 24°44' E 118°60'1 0.8
2014-Dec-08 10:34N 24°44' E 118°60'0 0.4
2014-Dec-08 09:34N 24°43' E 118°59'1 1.1
2014-Dec-08 08:34N 24°42' E 118°59'1 0.9
2014-Dec-08 07:33N 24°43' E 118°60'1 0.6
2014-Dec-08 06:34N 24°43' E 118°60'0 0.2
2014-Dec-08 05:24N 24°43' E 119°00'1 0.8
2014-Dec-08 04:32N 24°43' E 118°59'1 1.3
2014-Dec-08 03:33N 24°42' E 119°00'3 3.2
2014-Dec-08 02:34N 24°45' E 119°02'2 2.0
2014-Dec-08 01:33N 24°47' E 119°01'4 4.2
2014-Dec-08 00:33N 24°43' E 118°59'0 0.2
2014-Dec-07 23:29N 24°43' E 118°60'0 0.1
2014-Dec-07 22:29N 24°43' E 118°60'0 0.1
2014-Dec-07 21:29N 24°43' E 118°59'0 0.1
2014-Dec-07 20:29N 24°43' E 118°59'0 0.0
2014-Dec-07 19:23N 24°43' E 118°59'0 0.1
2014-Dec-07 18:23N 24°43' E 118°59'0 0.1
2014-Dec-07 17:29N 24°43' E 118°59'0 0.0
2014-Dec-07 16:11N 24°43' E 118°59'0 0.1
2014-Dec-07 15:29N 24°43' E 118°59'0 0.0
2014-Dec-07 14:29N 24°43' E 118°59'0 0.2
2014-Dec-07 13:17N 24°43' E 118°59'0 0.2
2014-Dec-07 12:29N 24°43' E 118°60'0 0.3
2014-Dec-07 11:33N 24°43' E 118°60'2 1.9
2014-Dec-07 10:33N 24°43' E 119°02'5 5.5
2014-Dec-07 09:33N 24°43' E 119°08'  

Dump ship's entire track history